Time;durP1;ratioP1;P1;durP2;ratioP2;P2;SDS_P1;SDS_P2;PMS_P1;PMS_P2;Temp;Humidity;BMP_temperature;BMP_pressure;BME280_temperature;BME280_humidity;BME280_pressure;Samples;Min_cycle;Max_cycle;Signal;HPM_P1;HPM_P2
2021/04/07 00:00:30;;;;;;;7.80;2.22;;;1.70;99.90;;;;;;5055222;28;20207;-65
2021/04/07 00:02:57;;;;;;;9.23;3.33;;;1.70;99.90;;;;;;5055309;28;20180;-65
2021/04/07 00:05:37;;;;;;;18.77;4.50;;;1.70;99.90;;;;;;5055206;28;20196;-65
2021/04/07 00:08:04;;;;;;;5.70;3.38;;;1.60;99.90;;;;;;5055591;28;20177;-65
2021/04/07 00:10:35;;;;;;;17.55;9.18;;;1.60;99.90;;;;;;5055073;28;20516;-65
2021/04/07 00:13:01;;;;;;;5.45;3.30;;;1.60;99.90;;;;;;5055582;28;20679;-65
2021/04/07 00:15:28;;;;;;;4.40;3.25;;;1.60;99.90;;;;;;5055229;28;20215;-65
2021/04/07 00:17:56;;;;;;;2.78;2.10;;;1.60;99.90;;;;;;5055409;28;20263;-65
2021/04/07 00:20:24;;;;;;;3.22;2.92;;;1.60;99.90;;;;;;5037548;28;20212;-65
2021/04/07 00:22:51;;;;;;;6.35;3.88;;;1.60;99.90;;;;;;5055304;28;20216;-65
2021/04/07 00:25:19;;;;;;;3.03;2.65;;;1.50;99.90;;;;;;5054755;28;20211;-65
2021/04/07 00:27:54;;;;;;;15.18;8.35;;;1.50;99.90;;;;;;5055744;28;20550;-65
2021/04/07 00:30:22;;;;;;;4.30;2.53;;;1.40;99.90;;;;;;5055497;28;20565;-65
2021/04/07 00:32:49;;;;;;;2.97;2.17;;;1.40;99.90;;;;;;5055298;28;20189;-65
2021/04/07 00:35:15;;;;;;;3.22;2.80;;;1.40;99.90;;;;;;5054631;28;20283;-65
2021/04/07 00:37:42;;;;;;;4.38;2.40;;;1.30;99.90;;;;;;5054682;28;20200;-65
2021/04/07 00:40:09;;;;;;;5.22;2.42;;;1.30;99.90;;;;;;5053555;28;20698;-65
2021/04/07 00:42:38;;;;;;;4.18;3.28;;;1.20;99.90;;;;;;5053934;28;20212;-65
2021/04/07 00:45:06;;;;;;;3.88;2.83;;;1.20;99.90;;;;;;5053982;28;20205;-65
2021/04/07 00:47:33;;;;;;;4.95;2.72;;;1.20;99.90;;;;;;5054092;28;20723;-65
2021/04/07 00:49:59;;;;;;;10.68;3.35;;;1.10;99.90;;;;;;5054187;28;20223;-65
2021/04/07 00:52:26;;;;;;;4.60;3.45;;;1.10;99.90;;;;;;5052962;28;20209;-65
2021/04/07 00:54:53;;;;;;;6.05;3.17;;;1.10;99.90;;;;;;5054328;28;20537;-65
2021/04/07 00:57:21;;;;;;;4.22;2.13;;;1.10;99.90;;;;;;5055833;28;20204;-65
2021/04/07 00:59:48;;;;;;;2.65;2.30;;;1.10;99.90;;;;;;5057706;28;20693;-65
2021/04/07 01:02:19;;;;;;;2.72;2.17;;;1.10;99.90;;;;;;5040162;28;20208;-64
2021/04/07 01:04:47;;;;;;;5.53;2.20;;;1.10;99.90;;;;;;5057649;28;20219;-63
2021/04/07 01:07:14;;;;;;;3.00;2.30;;;1.00;99.90;;;;;;5057293;28;20192;-62
2021/04/07 01:09:40;;;;;;;2.63;2.42;;;1.00;99.90;;;;;;5057274;28;20216;-63
2021/04/07 01:12:08;;;;;;;3.55;2.80;;;1.00;99.90;;;;;;5057416;28;20238;-63
2021/04/07 01:14:35;;;;;;;6.68;2.55;;;1.00;99.90;;;;;;5057543;28;20209;-63
2021/04/07 01:17:03;;;;;;;9.27;2.15;;;1.00;99.90;;;;;;5057266;28;20635;-63
2021/04/07 01:19:31;;;;;;;6.60;3.20;;;0.90;99.90;;;;;;5057206;28;20193;-63
2021/04/07 01:21:57;;;;;;;3.35;2.90;;;0.90;99.90;;;;;;5057140;28;20193;-63
2021/04/07 01:24:24;;;;;;;5.15;3.00;;;0.90;99.90;;;;;;5057109;28;20216;-63
2021/04/07 01:26:52;;;;;;;3.00;2.80;;;0.90;99.90;;;;;;5057038;28;20199;-63
2021/04/07 01:29:19;;;;;;;5.72;2.58;;;0.90;99.90;;;;;;5057099;28;20227;-63
2021/04/07 01:31:52;;;;;;;6.53;3.25;;;0.80;99.90;;;;;;5057667;28;20204;-63
2021/04/07 01:34:29;;;;;;;3.30;2.55;;;0.90;99.90;;;;;;5056712;28;20199;-63
2021/04/07 01:36:57;;;;;;;6.68;2.90;;;0.90;99.90;;;;;;5038888;28;20226;-63
2021/04/07 01:39:26;;;;;;;4.93;2.58;;;0.80;99.90;;;;;;5057271;28;20208;-62
2021/04/07 01:41:53;;;;;;;5.13;2.28;;;0.90;99.90;;;;;;5055537;28;20232;-58
2021/04/07 01:44:22;;;;;;;3.45;2.97;;;0.80;99.90;;;;;;5055405;28;20204;-63
2021/04/07 01:46:49;;;;;;;2.72;2.55;;;0.90;99.90;;;;;;5055100;28;20195;-63
2021/04/07 01:49:15;;;;;;;4.93;2.70;;;0.90;99.90;;;;;;5055556;28;20263;-63
2021/04/07 01:51:43;;;;;;;3.83;2.58;;;0.90;99.90;;;;;;5054880;28;20208;-61
2021/04/07 01:54:14;;;;;;;3.10;2.80;;;0.90;99.90;;;;;;5055075;28;20192;-63
2021/04/07 01:56:48;;;;;;;2.83;2.45;;;0.90;99.90;;;;;;5055111;28;20531;-63
2021/04/07 01:59:17;;;;;;;3.50;2.60;;;0.90;99.90;;;;;;5037370;28;20208;-63
2021/04/07 02:01:43;;;;;;;2.92;2.72;;;0.90;99.90;;;;;;5055280;28;20185;-63
2021/04/07 02:04:10;;;;;;;3.05;2.05;;;1.00;99.90;;;;;;5054257;28;20201;-63
2021/04/07 02:06:37;;;;;;;3.10;1.98;;;1.00;99.90;;;;;;5055264;28;20200;-63
2021/04/07 02:09:06;;;;;;;3.83;2.72;;;1.00;99.90;;;;;;5054698;28;20295;-63
2021/04/07 02:11:32;;;;;;;3.17;2.63;;;1.00;99.90;;;;;;5054941;28;20208;-63
2021/04/07 02:13:59;;;;;;;4.93;2.63;;;1.10;99.90;;;;;;5054944;28;20326;-63
2021/04/07 02:16:25;;;;;;;2.80;2.05;;;1.10;99.90;;;;;;5054848;28;20193;-63
2021/04/07 02:18:51;;;;;;;5.63;2.47;;;1.10;99.90;;;;;;5054763;28;20189;-63
2021/04/07 02:21:18;;;;;;;4.32;2.97;;;1.20;99.90;;;;;;5054249;28;20685;-62
2021/04/07 02:23:44;;;;;;;23.42;14.70;;;1.10;99.90;;;;;;5037185;28;20651;-61
2021/04/07 02:26:10;;;;;;;8.68;6.82;;;1.00;99.90;;;;;;5053938;28;20587;-63
2021/04/07 02:28:37;;;;;;;3.95;3.65;;;1.00;99.90;;;;;;5054531;28;20223;-63
2021/04/07 02:31:03;;;;;;;3.22;2.97;;;1.10;99.90;;;;;;5054626;28;20556;-61
2021/04/07 02:33:30;;;;;;;5.20;3.03;;;1.00;99.90;;;;;;5054558;28;20201;-63
2021/04/07 02:35:56;;;;;;;7.65;2.40;;;1.10;99.90;;;;;;5036786;28;20232;-63
2021/04/07 02:38:23;;;;;;;3.60;2.58;;;1.10;99.90;;;;;;5054516;28;20553;-63
2021/04/07 02:40:49;;;;;;;2.95;2.67;;;1.10;99.90;;;;;;5033904;28;592566;-63
2021/04/07 02:43:15;;;;;;;2.72;2.15;;;1.10;99.90;;;;;;5055493;28;20230;-63
2021/04/07 02:45:42;;;;;;;2.85;1.92;;;1.20;99.90;;;;;;5055593;28;20644;-63
2021/04/07 02:48:08;;;;;;;7.07;2.08;;;1.20;99.90;;;;;;5055285;28;20644;-63
2021/04/07 02:50:35;;;;;;;2.60;2.40;;;1.20;99.90;;;;;;5053852;28;20581;-62
2021/04/07 02:53:01;;;;;;;3.80;1.70;;;1.20;99.90;;;;;;5054106;28;20201;-62
2021/04/07 02:55:27;;;;;;;2.50;2.30;;;1.20;99.90;;;;;;5055249;28;20192;-63
2021/04/07 02:57:53;;;;;;;1.90;1.80;;;1.20;99.90;;;;;;5055230;28;20191;-63
2021/04/07 03:00:21;;;;;;;2.78;2.05;;;1.20;99.90;;;;;;5054818;28;20266;-63
2021/04/07 03:02:48;;;;;;;2.92;2.70;;;1.20;99.90;;;;;;5054921;28;20181;-62
2021/04/07 03:05:14;;;;;;;2.28;2.08;;;1.30;99.90;;;;;;5055095;28;20262;-63
2021/04/07 03:07:41;;;;;;;2.55;2.03;;;1.20;99.90;;;;;;5054897;28;20885;-61
2021/04/07 03:10:10;;;;;;;4.22;2.13;;;1.30;99.90;;;;;;5054972;28;20238;-63
2021/04/07 03:12:37;;;;;;;4.97;2.50;;;1.30;99.90;;;;;;5053926;28;20544;-63
2021/04/07 03:15:06;;;;;;;4.00;1.83;;;1.20;99.90;;;;;;5054095;28;20682;-63
2021/04/07 03:17:33;;;;;;;4.38;2.20;;;1.20;99.90;;;;;;5054586;28;20196;-63
2021/04/07 03:19:59;;;;;;;2.58;2.10;;;1.20;99.90;;;;;;5053948;28;20268;-63
2021/04/07 03:22:25;;;;;;;5.28;2.50;;;1.20;99.90;;;;;;5054718;28;20193;-63
2021/04/07 03:24:52;;;;;;;2.10;1.90;;;1.20;99.90;;;;;;5054744;28;20275;-63
2021/04/07 03:27:18;;;;;;;2.30;2.13;;;1.20;99.90;;;;;;5037042;28;20215;-62
2021/04/07 03:29:44;;;;;;;1.73;1.63;;;1.20;99.90;;;;;;5054520;28;20216;-60
2021/04/07 03:32:11;;;;;;;4.65;2.65;;;1.20;99.90;;;;;;5054484;28;20640;-63
2021/04/07 03:34:37;;;;;;;6.53;2.10;;;1.20;99.90;;;;;;5054626;28;20189;-63
2021/04/07 03:37:03;;;;;;;4.22;1.88;;;1.10;99.90;;;;;;5055360;28;20208;-62
2021/04/07 03:39:30;;;;;;;2.47;1.70;;;1.10;99.90;;;;;;5036801;28;20197;-63
2021/04/07 03:41:56;;;;;;;1.70;1.60;;;1.10;99.90;;;;;;5054312;28;20243;-63
2021/04/07 03:44:22;;;;;;;4.57;3.13;;;1.10;99.90;;;;;;5054520;28;20193;-63
2021/04/07 03:46:56;;;;;;;4.05;2.15;;;1.10;99.90;;;;;;5054410;28;20279;-63
2021/04/07 03:49:22;;;;;;;5.53;3.42;;;1.00;99.90;;;;;;5054605;28;20264;-63
2021/04/07 03:51:48;;;;;;;3.45;2.42;;;1.00;99.90;;;;;;5054270;28;20189;-63
2021/04/07 03:54:17;;;;;;;3.00;2.80;;;0.90;99.90;;;;;;5054269;28;20211;-62
2021/04/07 03:56:43;;;;;;;3.50;3.03;;;0.90;99.90;;;;;;5054086;28;20253;-62
2021/04/07 03:59:09;;;;;;;6.00;2.38;;;0.80;99.90;;;;;;5053703;28;20204;-63
2021/04/07 04:01:36;;;;;;;4.20;3.90;;;0.80;99.90;;;;;;5054105;28;20204;-63
2021/04/07 04:04:02;;;;;;;3.83;3.50;;;0.80;99.90;;;;;;5054431;28;20658;-63
2021/04/07 04:06:29;;;;;;;5.22;2.40;;;0.70;99.90;;;;;;5054223;28;20551;-63
2021/04/07 04:08:55;;;;;;;4.50;2.92;;;0.60;99.90;;;;;;5054286;28;20758;-62
2021/04/07 04:11:21;;;;;;;6.47;3.50;;;0.60;99.90;;;;;;5053982;28;20189;-63
2021/04/07 04:13:47;;;;;;;3.58;2.50;;;0.50;99.90;;;;;;5053855;28;20192;-63
2021/04/07 04:16:14;;;;;;;3.08;2.70;;;0.50;99.90;;;;;;5053841;28;20287;-63
2021/04/07 04:18:40;;;;;;;5.60;2.45;;;0.50;99.90;;;;;;5053669;28;20212;-63
2021/04/07 04:21:06;;;;;;;4.65;2.10;;;0.50;99.90;;;;;;5019348;28;20566;-62
2021/04/07 04:23:33;;;;;;;6.82;2.65;;;0.50;99.90;;;;;;5053951;28;20185;-62
2021/04/07 04:25:59;;;;;;;3.58;2.38;;;0.60;99.90;;;;;;5053036;28;20655;-63
2021/04/07 04:28:26;;;;;;;5.20;2.55;;;0.60;99.90;;;;;;5053920;28;20673;-63
2021/04/07 04:30:52;;;;;;;10.82;2.63;;;0.60;99.90;;;;;;5053505;28;20299;-63
2021/04/07 04:33:18;;;;;;;4.18;2.88;;;0.70;99.90;;;;;;5035909;28;20220;-63
2021/04/07 04:35:45;;;;;;;2.35;2.15;;;0.60;99.90;;;;;;5053630;28;20189;-63
2021/04/07 04:38:12;;;;;;;4.28;2.20;;;0.60;99.90;;;;;;5053644;28;20675;-63
2021/04/07 04:40:39;;;;;;;4.00;3.70;;;0.60;99.90;;;;;;5052695;28;20236;-60
2021/04/07 04:43:05;;;;;;;5.97;3.30;;;0.60;99.90;;;;;;5053732;28;20723;-63
2021/04/07 04:45:34;;;;;;;2.47;2.25;;;0.60;99.90;;;;;;5053572;28;20193;-63
2021/04/07 04:48:00;;;;;;;3.00;2.70;;;0.60;99.90;;;;;;5034942;28;20208;-63
2021/04/07 04:50:27;;;;;;;3.00;2.63;;;0.60;99.90;;;;;;5053283;28;20296;-63
2021/04/07 04:52:53;;;;;;;3.80;2.20;;;0.60;99.90;;;;;;5053703;28;20192;-62
2021/04/07 04:55:19;;;;;;;3.05;1.80;;;0.60;99.90;;;;;;5053646;28;20193;-62
2021/04/07 04:57:46;;;;;;;4.78;4.13;;;0.60;99.90;;;;;;5035196;28;20228;-57
2021/04/07 05:00:13;;;;;;;2.80;2.47;;;0.60;99.90;;;;;;5035770;28;20207;-61
2021/04/07 05:02:39;;;;;;;2.45;1.88;;;0.60;99.90;;;;;;5053583;28;20280;-61
2021/04/07 05:05:06;;;;;;;4.93;2.20;;;0.50;99.90;;;;;;5053747;28;20188;-63
2021/04/07 05:07:33;;;;;;;4.82;2.95;;;0.50;99.90;;;;;;5053923;28;20189;-62
2021/04/07 05:09:59;;;;;;;4.82;2.67;;;0.50;99.90;;;;;;5053264;28;20213;-63
2021/04/07 05:12:26;;;;;;;5.15;2.78;;;0.50;99.90;;;;;;5053578;28;20232;-63
2021/04/07 05:14:52;;;;;;;3.65;3.35;;;0.60;99.90;;;;;;5053399;28;20202;-61
2021/04/07 05:17:19;;;;;;;6.35;3.03;;;0.60;99.90;;;;;;5053317;28;20189;-63
2021/04/07 05:19:45;;;;;;;3.67;2.58;;;0.60;99.90;;;;;;5052338;28;20205;-63
2021/04/07 05:22:12;;;;;;;3.70;1.88;;;0.60;99.90;;;;;;5019543;28;20209;-62
2021/04/07 05:24:38;;;;;;;3.60;3.25;;;0.60;99.90;;;;;;5053138;28;20189;-63
2021/04/07 05:27:05;;;;;;;8.35;2.15;;;0.60;99.90;;;;;;5053282;28;20193;-60
2021/04/07 05:29:31;;;;;;;3.45;2.20;;;0.60;99.90;;;;;;5035496;28;20255;-63
2021/04/07 05:31:58;;;;;;;4.80;2.45;;;0.60;99.90;;;;;;5053058;28;20196;-63
2021/04/07 05:34:24;;;;;;;3.65;1.70;;;0.60;99.90;;;;;;5052974;28;20201;-63
2021/04/07 05:36:51;;;;;;;3.05;2.10;;;0.60;99.90;;;;;;5053057;28;20203;-63
2021/04/07 05:39:17;;;;;;;2.58;1.83;;;0.60;99.90;;;;;;5053256;28;20670;-63
2021/04/07 05:41:44;;;;;;;2.95;2.20;;;0.60;99.90;;;;;;5052247;28;20692;-62
2021/04/07 05:44:10;;;;;;;2.05;1.70;;;0.70;99.90;;;;;;5054085;28;20211;-60
2021/04/07 05:46:36;;;;;;;3.33;2.00;;;0.70;99.90;;;;;;5052021;28;20211;-63
2021/04/07 05:49:03;;;;;;;4.35;2.13;;;0.80;99.90;;;;;;5045103;28;20652;-63
2021/04/07 05:51:29;;;;;;;12.57;2.83;;;0.80;99.90;;;;;;5056019;28;20196;-63
2021/04/07 05:53:55;;;;;;;5.03;2.25;;;0.80;99.90;;;;;;5056009;28;20253;-63
2021/04/07 05:56:22;;;;;;;2.92;1.65;;;0.80;99.90;;;;;;5056168;28;20283;-62
2021/04/07 05:58:48;;;;;;;4.28;2.03;;;0.90;99.90;;;;;;5056071;28;20193;-63
2021/04/07 06:01:15;;;;;;;4.43;2.80;;;0.90;99.90;;;;;;5056432;28;20196;-63
2021/04/07 06:03:41;;;;;;;5.15;2.50;;;0.90;99.90;;;;;;5038799;28;20625;-63
2021/04/07 06:06:08;;;;;;;4.18;2.95;;;0.70;99.90;;;;;;5056502;28;20192;-61
2021/04/07 06:08:34;;;;;;;9.57;3.15;;;0.60;99.90;;;;;;5055060;28;20201;-62
2021/04/07 06:11:01;;;;;;;5.00;3.05;;;0.60;99.90;;;;;;5056889;28;20231;-63
2021/04/07 06:13:27;;;;;;;7.10;3.10;;;0.70;99.90;;;;;;5056984;28;20597;-65
2021/04/07 06:15:54;;;;;;;3.47;3.17;;;0.80;99.90;;;;;;5056632;28;20197;-63
2021/04/07 06:18:20;;;;;;;3.22;2.85;;;0.80;99.90;;;;;;5056475;28;20630;-61
2021/04/07 06:20:49;;;;;;;8.05;3.30;;;0.70;99.90;;;;;;5037968;28;20214;-64
2021/04/07 06:23:18;;;;;;;5.68;3.22;;;0.80;99.90;;;;;;5056146;28;20191;-63
2021/04/07 06:25:45;;;;;;;9.30;3.55;;;0.90;99.90;;;;;;5056334;28;20215;-63
2021/04/07 06:28:13;;;;;;;3.05;2.83;;;1.00;99.90;;;;;;5039115;28;20201;-64
2021/04/07 06:30:46;;;;;;;4.95;3.80;;;1.10;99.90;;;;;;5038358;28;20291;-64
2021/04/07 06:33:16;;;;;;;3.47;2.88;;;1.30;99.90;;;;;;5056465;28;20180;-64
2021/04/07 06:35:45;;;;;;;4.03;3.72;;;1.20;99.90;;;;;;5056209;28;20564;-64
2021/04/07 06:38:13;;;;;;;4.40;3.50;;;1.00;99.90;;;;;;5038668;28;20203;-64
2021/04/07 06:40:39;;;;;;;5.18;2.92;;;1.20;99.90;;;;;;5056098;28;20282;-64
2021/04/07 06:43:06;;;;;;;7.20;3.78;;;1.40;99.90;;;;;;5056370;28;20197;-63
2021/04/07 06:45:34;;;;;;;4.45;2.95;;;1.30;99.90;;;;;;5037970;28;20283;-63
2021/04/07 06:48:01;;;;;;;5.10;4.10;;;1.40;99.90;;;;;;5057279;28;20298;-64
2021/04/07 06:50:28;;;;;;;6.10;3.45;;;1.40;99.90;;;;;;5055858;28;20213;-62
2021/04/07 06:52:59;;;;;;;4.43;2.80;;;1.50;99.90;;;;;;5055530;28;20223;-64
2021/04/07 06:55:28;;;;;;;5.90;3.40;;;1.40;99.90;;;;;;5035929;28;20659;-63
2021/04/07 06:57:54;;;;;;;3.95;3.20;;;1.70;99.90;;;;;;5055213;28;20189;-63
2021/04/07 07:00:27;;;;;;;3.20;3.00;;;1.90;99.90;;;;;;5056302;28;20205;-64
2021/04/07 07:03:06;;;;;;;9.60;3.40;;;2.10;99.90;;;;;;5055238;28;20211;-64
2021/04/07 07:05:34;;;;;;;6.32;3.15;;;2.20;99.90;;;;;;5055037;28;20177;-62
2021/04/07 07:08:03;;;;;;;3.25;2.50;;;2.30;99.90;;;;;;5055142;28;20193;-64
2021/04/07 07:10:34;;;;;;;3.83;2.47;;;2.40;99.90;;;;;;5055001;28;20232;-61
2021/04/07 07:13:00;;;;;;;4.30;3.20;;;2.40;99.90;;;;;;5054582;28;20211;-63
2021/04/07 07:15:27;;;;;;;3.25;2.33;;;2.40;99.90;;;;;;5054461;28;20218;-63
2021/04/07 07:17:53;;;;;;;5.95;2.80;;;2.60;99.90;;;;;;5054401;28;20205;-65
2021/04/07 07:20:31;;;;;;;2.97;2.70;;;2.40;99.90;;;;;;5054890;28;20199;-63
2021/04/07 07:22:58;;;;;;;9.25;3.13;;;2.50;99.90;;;;;;5054639;28;20528;-62
2021/04/07 07:25:25;;;;;;;2.63;2.30;;;2.60;99.90;;;;;;5040180;28;20204;-63
2021/04/07 07:28:18;;;;;;;3.50;2.30;;;2.40;99.90;;;;;;5053972;28;20567;-64
2021/04/07 07:30:45;;;;;;;7.07;2.70;;;2.60;99.90;;;;;;5049498;28;20595;-66
2021/04/07 07:33:25;;;;;;;5.50;2.95;;;2.70;99.90;;;;;;5035925;28;20205;-63
2021/04/07 07:36:05;;;;;;;3.50;3.10;;;2.60;99.90;;;;;;5054130;28;20639;-64
2021/04/07 07:38:33;;;;;;;4.60;2.67;;;2.60;99.90;;;;;;5054219;28;20271;-62
2021/04/07 07:41:07;;;;;;;4.57;2.42;;;2.50;99.90;;;;;;5053890;28;20274;-63
2021/04/07 07:43:37;;;;;;;4.00;2.50;;;2.50;99.90;;;;;;5043022;28;20200;-64
2021/04/07 07:46:28;;;;;;;6.72;3.20;;;2.70;99.90;;;;;;5030180;28;20210;-64
2021/04/07 07:48:56;;;;;;;2.78;2.58;;;2.60;99.90;;;;;;5047323;28;20192;-64
2021/04/07 07:51:24;;;;;;;8.85;2.80;;;2.60;99.90;;;;;;5053113;28;20228;-64
2021/04/07 07:53:53;;;;;;;9.15;2.65;;;2.70;99.90;;;;;;5053879;28;20203;-65
2021/04/07 07:56:21;;;;;;;4.05;2.58;;;2.80;99.90;;;;;;5053527;28;20562;-65
2021/04/07 07:58:50;;;;;;;8.25;3.15;;;2.80;99.90;;;;;;5053957;28;20626;-65
2021/04/07 08:01:19;;;;;;;3.25;2.90;;;2.70;99.90;;;;;;5053728;28;20206;-64
2021/04/07 08:03:48;;;;;;;4.03;3.70;;;2.60;99.90;;;;;;5035475;28;20205;-64
2021/04/07 08:06:16;;;;;;;3.88;2.92;;;2.60;99.90;;;;;;5053227;28;20219;-64
2021/04/07 08:08:42;;;;;;;6.10;3.28;;;2.50;99.90;;;;;;5053908;28;20234;-64
2021/04/07 08:11:09;;;;;;;3.70;3.20;;;2.50;99.90;;;;;;5053074;28;20234;-65
2021/04/07 08:13:38;;;;;;;6.32;2.80;;;2.50;99.90;;;;;;5053387;28;20222;-64
2021/04/07 08:16:06;;;;;;;4.13;2.40;;;2.50;99.90;;;;;;5053828;28;20257;-64
2021/04/07 08:18:34;;;;;;;6.43;3.78;;;2.60;99.90;;;;;;5035437;28;20209;-63
2021/04/07 08:21:02;;;;;;;5.22;2.80;;;2.70;99.90;;;;;;5053978;28;20577;-64
2021/04/07 08:23:30;;;;;;;4.18;3.67;;;2.60;99.90;;;;;;5054143;28;20568;-63
2021/04/07 08:25:59;;;;;;;11.20;3.58;;;2.60;99.90;;;;;;5053808;28;20196;-63
2021/04/07 08:28:28;;;;;;;5.70;3.20;;;2.80;99.90;;;;;;5053484;28;20575;-63
2021/04/07 08:30:55;;;;;;;3.20;2.90;;;2.80;99.90;;;;;;5054108;28;20580;-63
2021/04/07 08:33:22;;;;;;;6.10;3.20;;;3.00;99.90;;;;;;5053394;28;20295;-63
2021/04/07 08:35:52;;;;;;;3.85;3.50;;;3.10;99.90;;;;;;5054100;28;20216;-62
2021/04/07 08:38:33;;;;;;;8.35;3.08;;;3.00;99.90;;;;;;5054025;28;20193;-62
2021/04/07 08:41:13;;;;;;;4.70;2.75;;;3.10;99.90;;;;;;5053651;28;20228;-63
2021/04/07 08:43:40;;;;;;;8.05;3.10;;;3.10;99.90;;;;;;5053500;28;20180;-63
2021/04/07 08:46:20;;;;;;;4.93;2.80;;;3.40;99.90;;;;;;5053009;28;20565;-63
2021/04/07 08:48:46;;;;;;;5.45;3.05;;;3.20;99.90;;;;;;5052872;28;20216;-61
2021/04/07 08:51:15;;;;;;;4.10;3.20;;;3.20;99.90;;;;;;5053341;28;20212;-62
2021/04/07 08:53:44;;;;;;;5.28;3.03;;;3.30;99.90;;;;;;5047355;28;20293;-64
2021/04/07 08:56:13;;;;;;;5.78;2.78;;;3.40;99.90;;;;;;5044849;28;20607;-63
2021/04/07 08:58:53;;;;;;;3.47;2.80;;;3.30;99.90;;;;;;5053103;28;20218;-63
2021/04/07 09:01:40;;;;;;;9.60;2.40;;;3.20;99.90;;;;;;5035727;28;20220;-64
2021/04/07 09:04:12;;;;;;;3.28;2.60;;;3.30;99.90;;;;;;5053340;28;20200;-64
2021/04/07 09:06:40;;;;;;;6.50;3.28;;;3.50;99.90;;;;;;5052538;28;20291;-64
2021/04/07 09:09:07;;;;;;;4.47;2.63;;;3.40;99.90;;;;;;5053255;28;20677;-64
2021/04/07 09:11:38;;;;;;;10.32;2.97;;;3.30;99.90;;;;;;5040344;28;20663;-63
2021/04/07 09:14:06;;;;;;;5.28;2.65;;;3.30;99.90;;;;;;5051831;28;20564;-63
2021/04/07 09:16:39;;;;;;;12.68;3.40;;;3.40;99.90;;;;;;5052675;28;20193;-63
2021/04/07 09:19:24;;;;;;;4.63;2.70;;;3.40;99.90;;;;;;5056272;28;20235;-64
2021/04/07 09:22:14;;;;;;;9.85;3.55;;;3.20;99.90;;;;;;5057000;28;20192;-64
2021/04/07 09:24:44;;;;;;;7.47;3.25;;;3.30;99.90;;;;;;5056478;28;20196;-63
2021/04/07 09:27:25;;;;;;;5.38;3.35;;;2.90;99.90;;;;;;5043831;28;20212;-63
2021/04/07 09:29:52;;;;;;;4.07;3.40;;;2.90;99.90;;;;;;5031563;28;20200;-63
2021/04/07 09:32:19;;;;;;;7.93;3.22;;;3.10;99.90;;;;;;5056149;28;20196;-61
2021/04/07 09:34:47;;;;;;;7.35;3.00;;;3.30;99.90;;;;;;5056386;28;20605;-62
2021/04/07 09:37:14;;;;;;;4.90;3.10;;;3.40;99.90;;;;;;5056371;28;20212;-62
2021/04/07 09:39:41;;;;;;;5.38;3.08;;;3.60;99.90;;;;;;5055608;28;20205;-63
2021/04/07 09:42:08;;;;;;;5.75;2.88;;;3.60;99.90;;;;;;5055227;28;20228;-61
2021/04/07 09:44:35;;;;;;;3.60;2.88;;;3.30;99.90;;;;;;5056254;28;20189;-63
2021/04/07 09:47:04;;;;;;;4.32;3.08;;;3.40;99.90;;;;;;5037999;28;20229;-64
2021/04/07 09:49:34;;;;;;;6.45;2.80;;;3.70;99.90;;;;;;5045747;28;20228;-63
2021/04/07 09:52:01;;;;;;;7.53;3.50;;;3.40;99.90;;;;;;5051737;28;20243;-63
2021/04/07 09:54:30;;;;;;;3.88;3.10;;;3.50;99.90;;;;;;5038187;28;20283;-64
2021/04/07 09:57:02;;;;;;;3.78;3.05;;;3.70;99.90;;;;;;5056007;28;20211;-64
2021/04/07 09:59:44;;;;;;;4.57;2.72;;;4.10;99.90;;;;;;5056585;28;20196;-63
2021/04/07 10:02:22;;;;;;;4.90;3.28;;;4.20;99.90;;;;;;5038760;28;20207;-63
2021/04/07 10:04:50;;;;;;;5.25;2.60;;;4.30;99.90;;;;;;5056409;28;20215;-63
2021/04/07 10:07:19;;;;;;;5.47;3.25;;;4.40;99.90;;;;;;5049435;28;20288;-63
2021/04/07 10:09:47;;;;;;;4.03;2.30;;;4.50;99.90;;;;;;5050335;28;20644;-63
2021/04/07 10:12:15;;;;;;;2.65;2.45;;;4.20;99.90;;;;;;5056464;28;20192;-63
2021/04/07 10:14:55;;;;;;;13.40;2.90;;;4.20;99.90;;;;;;5056211;28;20212;-63
2021/04/07 10:17:40;;;;;;;3.75;2.78;;;4.60;99.90;;;;;;5055829;28;20207;-63
2021/04/07 10:20:11;;;;;;;4.00;2.30;;;4.80;99.90;;;;;;5056265;28;20188;-62
2021/04/07 10:22:38;;;;;;;4.20;2.47;;;4.50;99.90;;;;;;5056796;28;20199;-63
2021/04/07 10:25:15;;;;;;;6.68;2.83;;;4.50;99.90;;;;;;5056703;28;20207;-64
2021/04/07 10:27:43;;;;;;;5.22;2.90;;;4.70;99.90;;;;;;5056580;28;20181;-63
2021/04/07 10:30:13;;;;;;;6.13;2.55;;;4.80;99.90;;;;;;5056764;28;20196;-63
2021/04/07 10:32:45;;;;;;;6.53;2.85;;;4.90;99.90;;;;;;5039599;28;20239;-63
2021/04/07 10:35:27;;;;;;;7.30;2.85;;;4.80;99.90;;;;;;5048664;28;20223;-62
2021/04/07 10:37:56;;;;;;;4.03;2.45;;;4.70;99.90;;;;;;5050205;28;20211;-63
2021/04/07 10:40:24;;;;;;;6.03;2.50;;;4.10;99.90;;;;;;5054514;28;20238;-63
2021/04/07 10:42:51;;;;;;;4.97;2.60;;;4.30;99.90;;;;;;5055289;28;20200;-63
2021/04/07 10:45:20;;;;;;;7.88;2.90;;;4.20;99.90;;;;;;5055102;28;20193;-62
2021/04/07 10:47:47;;;;;;;6.15;3.55;;;4.10;99.90;;;;;;5054904;28;20214;-62
2021/04/07 10:50:14;;;;;;;5.45;2.53;;;4.10;99.90;;;;;;5055498;28;20319;-63
2021/04/07 10:52:43;;;;;;;6.78;2.10;;;4.00;99.90;;;;;;5036601;28;20200;-63
2021/04/07 10:55:31;;;;;;;6.53;2.63;;;3.90;99.90;;;;;;5054208;28;20204;-64
2021/04/07 10:57:59;;;;;;;2.78;1.70;;;4.20;99.90;;;;;;5054670;28;20209;-65
2021/04/07 11:00:36;;;;;;;4.20;2.10;;;4.20;99.90;;;;;;5054954;28;20193;-63
2021/04/07 11:03:03;;;;;;;4.80;2.67;;;4.00;99.90;;;;;;5054535;28;20196;-63
2021/04/07 11:05:41;;;;;;;3.25;2.83;;;3.40;99.90;;;;;;5054012;28;20195;-63
2021/04/07 11:08:10;;;;;;;6.47;1.92;;;3.20;99.90;;;;;;5054536;28;20200;-62
2021/04/07 11:10:45;;;;;;;3.65;1.90;;;3.20;99.90;;;;;;5054369;28;20293;-62
2021/04/07 11:13:13;;;;;;;7.85;2.42;;;3.40;99.90;;;;;;5054529;28;20664;-62
2021/04/07 11:15:40;;;;;;;6.60;2.63;;;3.60;99.90;;;;;;5054583;28;20193;-62
2021/04/07 11:18:07;;;;;;;4.85;2.25;;;3.60;99.90;;;;;;5054429;28;20280;-62
2021/04/07 11:20:34;;;;;;;6.95;2.25;;;3.60;99.90;;;;;;5054397;28;20196;-62
2021/04/07 11:23:01;;;;;;;8.15;2.15;;;3.80;99.90;;;;;;5054522;28;20204;-62
2021/04/07 11:25:28;;;;;;;11.13;3.03;;;3.90;99.90;;;;;;5055373;28;20189;-61
2021/04/07 11:27:57;;;;;;;2.75;1.77;;;3.70;99.90;;;;;;5054741;28;20196;-62
2021/04/07 11:30:26;;;;;;;3.10;2.25;;;3.70;99.90;;;;;;5053932;28;20196;-62
2021/04/07 11:32:58;;;;;;;6.28;2.30;;;3.70;99.90;;;;;;5054661;28;20667;-62
2021/04/07 11:38:07;;;;;;;4.50;2.25;;;3.30;99.90;;;;;;5055045;28;20197;-63
2021/04/07 11:40:43;;;;;;;4.70;2.95;;;3.30;99.90;;;;;;5054207;28;20236;-62
2021/04/07 11:45:39;;;;;;;11.55;3.30;;;3.40;99.90;;;;;;5054842;28;20631;-63
2021/04/07 11:48:08;;;;;;;2.33;1.90;;;3.40;99.90;;;;;;5054457;28;20227;-62
2021/04/07 11:50:35;;;;;;;2.60;2.08;;;3.30;99.90;;;;;;5054451;28;20671;-62
2021/04/07 11:53:02;;;;;;;3.90;2.13;;;3.30;99.90;;;;;;5054578;28;20198;-63
2021/04/07 11:55:28;;;;;;;3.10;2.50;;;3.40;99.90;;;;;;5054510;28;20189;-61
2021/04/07 11:57:54;;;;;;;6.93;2.15;;;3.40;99.90;;;;;;5054299;28;20195;-63
2021/04/07 12:00:21;;;;;;;7.97;2.40;;;3.60;99.90;;;;;;5054266;28;20194;-63
2021/04/07 12:02:49;;;;;;;5.05;2.33;;;3.80;99.90;;;;;;5054316;28;20201;-63
2021/04/07 12:05:19;;;;;;;5.03;2.38;;;3.70;99.90;;;;;;5054249;28;20211;-63
2021/04/07 12:07:45;;;;;;;5.18;2.80;;;3.80;99.90;;;;;;5055000;28;20173;-63
2021/04/07 12:10:12;;;;;;;5.53;2.20;;;3.90;99.90;;;;;;5054218;28;20184;-63
2021/04/07 12:12:38;;;;;;;3.38;1.88;;;3.80;99.90;;;;;;5053732;28;20204;-64
2021/04/07 12:15:05;;;;;;;7.13;2.53;;;3.60;99.90;;;;;;5054083;28;20193;-63
2021/04/07 12:17:32;;;;;;;7.60;3.05;;;3.50;99.90;;;;;;5053921;28;20647;-63
2021/04/07 12:19:58;;;;;;;2.40;2.15;;;3.60;99.90;;;;;;5054228;28;20188;-63
2021/04/07 12:22:25;;;;;;;3.50;2.45;;;3.50;99.90;;;;;;5036661;28;20648;-63
2021/04/07 12:24:51;;;;;;;6.45;3.40;;;3.40;99.90;;;;;;5053999;28;20192;-63
2021/04/07 12:27:18;;;;;;;5.00;2.70;;;3.50;99.90;;;;;;5053175;28;20235;-64
2021/04/07 12:29:44;;;;;;;4.90;2.55;;;3.30;99.90;;;;;;5053728;28;20687;-63
2021/04/07 12:32:11;;;;;;;9.98;2.25;;;3.10;99.90;;;;;;5053561;28;20560;-62
2021/04/07 12:34:37;;;;;;;6.75;2.40;;;3.30;99.90;;;;;;5053825;28;20275;-63
2021/04/07 12:37:04;;;;;;;5.50;2.22;;;3.20;99.90;;;;;;5036046;28;20197;-62
2021/04/07 12:39:31;;;;;;;2.35;1.83;;;3.30;99.90;;;;;;5035166;28;20211;-63
2021/04/07 12:41:59;;;;;;;2.25;1.77;;;3.40;99.90;;;;;;5034766;28;20243;-64
2021/04/07 12:44:25;;;;;;;6.22;3.70;;;3.40;99.90;;;;;;5053601;28;20200;-63
2021/04/07 12:46:52;;;;;;;3.55;3.05;;;3.20;99.90;;;;;;5053664;28;20192;-64
2021/04/07 12:49:18;;;;;;;4.55;3.50;;;3.30;99.90;;;;;;5054031;28;20192;-60
2021/04/07 12:51:45;;;;;;;3.97;2.38;;;3.30;99.90;;;;;;5053812;28;20228;-64
2021/04/07 12:54:13;;;;;;;4.43;2.22;;;3.10;99.90;;;;;;5057564;28;20204;-64
2021/04/07 12:56:41;;;;;;;2.85;2.30;;;3.20;99.90;;;;;;5057872;28;20198;-62
2021/04/07 12:59:08;;;;;;;6.82;2.20;;;3.20;99.90;;;;;;5057839;28;20674;-63
2021/04/07 13:01:34;;;;;;;1.90;1.80;;;3.20;99.90;;;;;;5057747;28;20666;-63
2021/04/07 13:04:00;;;;;;;4.90;2.40;;;3.20;99.90;;;;;;5057674;28;20195;-63
2021/04/07 13:06:27;;;;;;;3.30;2.20;;;3.30;99.90;;;;;;5057789;28;20207;-64
2021/04/07 13:08:54;;;;;;;3.05;2.60;;;3.30;99.90;;;;;;5057711;28;20188;-64